sensor_id;sensor_type;location;lat;lon;timestamp;temperature;humidity
15879;DHT22;61999;51.514;14.614;2023-07-20T00:00:08;14.20;56.60
15879;DHT22;61999;51.514;14.614;2023-07-20T00:02:37;14.30;57.10
15879;DHT22;61999;51.514;14.614;2023-07-20T00:05:06;14.40;56.80
15879;DHT22;61999;51.514;14.614;2023-07-20T00:07:34;14.30;57.00
15879;DHT22;61999;51.514;14.614;2023-07-20T00:10:02;14.20;57.10
15879;DHT22;61999;51.514;14.614;2023-07-20T00:12:30;13.90;56.90
15879;DHT22;61999;51.514;14.614;2023-07-20T00:14:58;13.70;57.30
15879;DHT22;61999;51.514;14.614;2023-07-20T00:17:25;13.60;57.60
15879;DHT22;61999;51.514;14.614;2023-07-20T00:19:55;13.60;57.80
15879;DHT22;61999;51.514;14.614;2023-07-20T00:22:23;13.50;57.90
15879;DHT22;61999;51.514;14.614;2023-07-20T00:24:50;13.70;58.90
15879;DHT22;61999;51.514;14.614;2023-07-20T00:27:19;13.80;58.50
15879;DHT22;61999;51.514;14.614;2023-07-20T00:29:47;13.90;58.70
15879;DHT22;61999;51.514;14.614;2023-07-20T00:32:15;13.90;58.50
15879;DHT22;61999;51.514;14.614;2023-07-20T00:34:43;14.00;58.20
15879;DHT22;61999;51.514;14.614;2023-07-20T00:37:12;14.10;58.40
15879;DHT22;61999;51.514;14.614;2023-07-20T00:39:40;13.90;58.50
15879;DHT22;61999;51.514;14.614;2023-07-20T00:42:08;13.80;58.70
15879;DHT22;61999;51.514;14.614;2023-07-20T00:44:36;13.80;58.90
15879;DHT22;61999;51.514;14.614;2023-07-20T00:47:05;13.70;59.10
15879;DHT22;61999;51.514;14.614;2023-07-20T00:49:33;13.70;59.30
15879;DHT22;61999;51.514;14.614;2023-07-20T00:52:03;13.70;60.90
15879;DHT22;61999;51.514;14.614;2023-07-20T00:54:36;14.10;60.60
15879;DHT22;61999;51.514;14.614;2023-07-20T00:57:07;14.00;60.80
15879;DHT22;61999;51.514;14.614;2023-07-20T00:59:35;14.00;62.10
15879;DHT22;61999;51.514;14.614;2023-07-20T01:02:03;13.70;60.70
15879;DHT22;61999;51.514;14.614;2023-07-20T01:04:32;13.50;61.10
15879;DHT22;61999;51.514;14.614;2023-07-20T01:07:12;13.40;60.80
15879;DHT22;61999;51.514;14.614;2023-07-20T01:09:50;13.20;61.20
15879;DHT22;61999;51.514;14.614;2023-07-20T01:12:27;13.10;61.50
15879;DHT22;61999;51.514;14.614;2023-07-20T01:15:00;13.10;61.90
15879;DHT22;61999;51.514;14.614;2023-07-20T01:17:29;13.00;61.70
15879;DHT22;61999;51.514;14.614;2023-07-20T01:19:57;13.00;61.70
15879;DHT22;61999;51.514;14.614;2023-07-20T01:22:42;13.00;61.80
15879;DHT22;61999;51.514;14.614;2023-07-20T01:25:48;13.00;62.40
15879;DHT22;61999;51.514;14.614;2023-07-20T01:28:55;12.90;62.50
15879;DHT22;61999;51.514;14.614;2023-07-20T01:31:33;13.10;64.10
15879;DHT22;61999;51.514;14.614;2023-07-20T01:34:05;13.50;64.20
15879;DHT22;61999;51.514;14.614;2023-07-20T01:36:39;13.50;62.90
15879;DHT22;61999;51.514;14.614;2023-07-20T01:39:09;13.20;62.40
15879;DHT22;61999;51.514;14.614;2023-07-20T01:41:38;13.00;62.60
15879;DHT22;61999;51.514;14.614;2023-07-20T01:44:06;12.90;63.50
15879;DHT22;61999;51.514;14.614;2023-07-20T01:46:35;12.90;64.20
15879;DHT22;61999;51.514;14.614;2023-07-20T01:49:04;13.20;64.40
15879;DHT22;61999;51.514;14.614;2023-07-20T01:51:31;13.20;64.10
15879;DHT22;61999;51.514;14.614;2023-07-20T01:53:59;13.20;64.10
15879;DHT22;61999;51.514;14.614;2023-07-20T01:56:27;13.00;63.70
15879;DHT22;61999;51.514;14.614;2023-07-20T01:58:55;12.90;64.00
15879;DHT22;61999;51.514;14.614;2023-07-20T02:01:23;12.80;64.40
15879;DHT22;61999;51.514;14.614;2023-07-20T02:03:52;12.70;65.00
15879;DHT22;61999;51.514;14.614;2023-07-20T02:06:21;12.70;64.80
15879;DHT22;61999;51.514;14.614;2023-07-20T02:08:49;12.60;64.80
15879;DHT22;61999;51.514;14.614;2023-07-20T02:11:17;12.50;65.70
15879;DHT22;61999;51.514;14.614;2023-07-20T02:13:45;12.70;65.60
15879;DHT22;61999;51.514;14.614;2023-07-20T02:16:12;12.60;65.00
15879;DHT22;61999;51.514;14.614;2023-07-20T02:18:40;12.50;64.40
15879;DHT22;61999;51.514;14.614;2023-07-20T02:21:09;12.30;64.60
15879;DHT22;61999;51.514;14.614;2023-07-20T02:23:37;12.20;64.90
15879;DHT22;61999;51.514;14.614;2023-07-20T02:26:05;12.10;65.50
15879;DHT22;61999;51.514;14.614;2023-07-20T02:28:33;12.10;65.90
15879;DHT22;61999;51.514;14.614;2023-07-20T02:31:01;12.10;66.60
15879;DHT22;61999;51.514;14.614;2023-07-20T02:33:30;12.20;66.50
15879;DHT22;61999;51.514;14.614;2023-07-20T02:35:57;12.30;66.20
15879;DHT22;61999;51.514;14.614;2023-07-20T02:38:27;12.60;65.90
15879;DHT22;61999;51.514;14.614;2023-07-20T02:40:55;12.50;65.60
15879;DHT22;61999;51.514;14.614;2023-07-20T02:43:23;12.50;65.60
15879;DHT22;61999;51.514;14.614;2023-07-20T02:45:51;12.50;65.80
15879;DHT22;61999;51.514;14.614;2023-07-20T02:48:20;12.40;65.90
15879;DHT22;61999;51.514;14.614;2023-07-20T02:50:48;12.30;66.10
15879;DHT22;61999;51.514;14.614;2023-07-20T02:53:16;12.20;66.00
15879;DHT22;61999;51.514;14.614;2023-07-20T02:55:46;11.90;65.90
15879;DHT22;61999;51.514;14.614;2023-07-20T02:58:14;12.00;66.60
15879;DHT22;61999;51.514;14.614;2023-07-20T03:00:42;11.90;66.80
15879;DHT22;61999;51.514;14.614;2023-07-20T03:03:11;11.80;66.80
15879;DHT22;61999;51.514;14.614;2023-07-20T03:05:40;11.90;67.50
15879;DHT22;61999;51.514;14.614;2023-07-20T03:08:09;12.00;67.40
15879;DHT22;61999;51.514;14.614;2023-07-20T03:10:40;12.20;67.10
15879;DHT22;61999;51.514;14.614;2023-07-20T03:13:09;12.20;67.10
15879;DHT22;61999;51.514;14.614;2023-07-20T03:15:37;12.10;67.30
15879;DHT22;61999;51.514;14.614;2023-07-20T03:18:05;12.10;67.60
15879;DHT22;61999;51.514;14.614;2023-07-20T03:20:35;12.10;67.60
15879;DHT22;61999;51.514;14.614;2023-07-20T03:23:03;12.10;67.70
15879;DHT22;61999;51.514;14.614;2023-07-20T03:25:31;12.20;67.80
15879;DHT22;61999;51.514;14.614;2023-07-20T03:28:00;12.20;67.60
15879;DHT22;61999;51.514;14.614;2023-07-20T03:30:29;12.30;67.50
15879;DHT22;61999;51.514;14.614;2023-07-20T03:32:57;12.30;67.50
15879;DHT22;61999;51.514;14.614;2023-07-20T03:35:25;12.20;67.80
15879;DHT22;61999;51.514;14.614;2023-07-20T03:37:53;12.20;68.30
15879;DHT22;61999;51.514;14.614;2023-07-20T03:40:20;12.10;68.40
15879;DHT22;61999;51.514;14.614;2023-07-20T03:42:49;12.10;68.70
15879;DHT22;61999;51.514;14.614;2023-07-20T03:45:17;12.10;68.80
15879;DHT22;61999;51.514;14.614;2023-07-20T03:47:46;11.90;69.10
15879;DHT22;61999;51.514;14.614;2023-07-20T03:50:15;11.70;69.90
15879;DHT22;61999;51.514;14.614;2023-07-20T03:52:43;11.80;69.80
15879;DHT22;61999;51.514;14.614;2023-07-20T03:55:11;11.80;69.70
15879;DHT22;61999;51.514;14.614;2023-07-20T03:57:38;11.80;70.00
15879;DHT22;61999;51.514;14.614;2023-07-20T04:00:08;11.70;70.10
15879;DHT22;61999;51.514;14.614;2023-07-20T04:02:37;11.90;69.90
15879;DHT22;61999;51.514;14.614;2023-07-20T04:05:06;12.10;69.30
15879;DHT22;61999;51.514;14.614;2023-07-20T04:07:34;12.00;69.70
15879;DHT22;61999;51.514;14.614;2023-07-20T04:10:03;11.90;69.90
15879;DHT22;61999;51.514;14.614;2023-07-20T04:12:31;11.90;70.20
15879;DHT22;61999;51.514;14.614;2023-07-20T04:14:59;11.70;70.70
15879;DHT22;61999;51.514;14.614;2023-07-20T04:17:27;11.70;70.80
15879;DHT22;61999;51.514;14.614;2023-07-20T04:19:56;11.70;71.00
15879;DHT22;61999;51.514;14.614;2023-07-20T04:22:25;11.40;70.80
15879;DHT22;61999;51.514;14.614;2023-07-20T04:24:53;11.40;71.80
15879;DHT22;61999;51.514;14.614;2023-07-20T04:27:22;11.80;71.20
15879;DHT22;61999;51.514;14.614;2023-07-20T04:29:49;11.80;70.90
15879;DHT22;61999;51.514;14.614;2023-07-20T04:32:17;11.90;70.10
15879;DHT22;61999;51.514;14.614;2023-07-20T04:34:45;11.90;70.00
15879;DHT22;61999;51.514;14.614;2023-07-20T04:37:13;11.70;70.60
15879;DHT22;61999;51.514;14.614;2023-07-20T04:39:43;11.70;70.70
15879;DHT22;61999;51.514;14.614;2023-07-20T04:42:11;11.70;70.60
15879;DHT22;61999;51.514;14.614;2023-07-20T04:44:39;11.60;71.20
15879;DHT22;61999;51.514;14.614;2023-07-20T04:47:07;11.40;71.70
15879;DHT22;61999;51.514;14.614;2023-07-20T04:49:35;11.70;71.20
15879;DHT22;61999;51.514;14.614;2023-07-20T04:52:04;11.70;70.80
15879;DHT22;61999;51.514;14.614;2023-07-20T04:54:32;11.70;71.10
15879;DHT22;61999;51.514;14.614;2023-07-20T04:57:01;11.80;71.00
15879;DHT22;61999;51.514;14.614;2023-07-20T04:59:29;12.00;70.30
15879;DHT22;61999;51.514;14.614;2023-07-20T05:01:57;12.00;70.20
15879;DHT22;61999;51.514;14.614;2023-07-20T05:04:25;12.30;69.60
15879;DHT22;61999;51.514;14.614;2023-07-20T05:06:55;12.10;69.70
15879;DHT22;61999;51.514;14.614;2023-07-20T05:09:23;12.20;70.30
15879;DHT22;61999;51.514;14.614;2023-07-20T05:11:51;12.50;69.20
15879;DHT22;61999;51.514;14.614;2023-07-20T05:14:20;12.30;69.90
15879;DHT22;61999;51.514;14.614;2023-07-20T05:16:48;12.60;69.00
15879;DHT22;61999;51.514;14.614;2023-07-20T05:19:16;12.80;67.50
15879;DHT22;61999;51.514;14.614;2023-07-20T05:21:44;12.70;67.60
15879;DHT22;61999;51.514;14.614;2023-07-20T05:24:12;12.60;68.20
15879;DHT22;61999;51.514;14.614;2023-07-20T05:26:40;12.80;67.50
15879;DHT22;61999;51.514;14.614;2023-07-20T05:29:08;12.70;67.80
15879;DHT22;61999;51.514;14.614;2023-07-20T05:31:38;12.70;68.10
15879;DHT22;61999;51.514;14.614;2023-07-20T05:34:05;12.60;68.30
15879;DHT22;61999;51.514;14.614;2023-07-20T05:36:33;12.70;68.00
15879;DHT22;61999;51.514;14.614;2023-07-20T05:39:01;12.90;67.30
15879;DHT22;61999;51.514;14.614;2023-07-20T05:41:29;12.70;68.30
15879;DHT22;61999;51.514;14.614;2023-07-20T05:43:57;12.90;67.90
15879;DHT22;61999;51.514;14.614;2023-07-20T05:46:25;13.00;67.70
15879;DHT22;61999;51.514;14.614;2023-07-20T05:48:56;13.10;67.10
15879;DHT22;61999;51.514;14.614;2023-07-20T05:51:24;12.90;67.70
15879;DHT22;61999;51.514;14.614;2023-07-20T05:53:52;13.00;68.20
15879;DHT22;61999;51.514;14.614;2023-07-20T05:56:20;13.20;67.20
15879;DHT22;61999;51.514;14.614;2023-07-20T05:58:48;13.10;67.80
15879;DHT22;61999;51.514;14.614;2023-07-20T06:01:16;13.20;67.70
15879;DHT22;61999;51.514;14.614;2023-07-20T06:03:45;13.40;67.10
15879;DHT22;61999;51.514;14.614;2023-07-20T06:06:14;13.50;66.40
15879;DHT22;61999;51.514;14.614;2023-07-20T06:08:42;13.60;65.40
15879;DHT22;61999;51.514;14.614;2023-07-20T06:11:10;13.60;65.80
15879;DHT22;61999;51.514;14.614;2023-07-20T06:13:38;13.70;64.80
15879;DHT22;61999;51.514;14.614;2023-07-20T06:16:06;13.80;64.10
15879;DHT22;61999;51.514;14.614;2023-07-20T06:18:34;13.70;64.60
15879;DHT22;61999;51.514;14.614;2023-07-20T06:21:02;13.70;64.50
15879;DHT22;61999;51.514;14.614;2023-07-20T06:23:31;13.90;63.90
15879;DHT22;61999;51.514;14.614;2023-07-20T06:25:59;13.70;64.80
15879;DHT22;61999;51.514;14.614;2023-07-20T06:28:27;13.70;64.40
15879;DHT22;61999;51.514;14.614;2023-07-20T06:30:59;14.00;62.50
15879;DHT22;61999;51.514;14.614;2023-07-20T06:33:27;14.00;62.10
15879;DHT22;61999;51.514;14.614;2023-07-20T06:35:55;13.90;63.60
15879;DHT22;61999;51.514;14.614;2023-07-20T06:38:26;14.00;62.30
15879;DHT22;61999;51.514;14.614;2023-07-20T06:40:59;14.10;61.80
15879;DHT22;61999;51.514;14.614;2023-07-20T06:43:30;14.10;61.40
15879;DHT22;61999;51.514;14.614;2023-07-20T06:46:01;13.90;62.10
15879;DHT22;61999;51.514;14.614;2023-07-20T06:48:29;14.00;61.60
15879;DHT22;61999;51.514;14.614;2023-07-20T06:50:57;14.00;61.20
15879;DHT22;61999;51.514;14.614;2023-07-20T06:53:29;14.40;59.80
15879;DHT22;61999;51.514;14.614;2023-07-20T06:56:02;14.30;60.30
15879;DHT22;61999;51.514;14.614;2023-07-20T06:58:31;14.40;59.20
15879;DHT22;61999;51.514;14.614;2023-07-20T07:00:59;14.50;59.20
15879;DHT22;61999;51.514;14.614;2023-07-20T07:03:27;14.30;60.20
15879;DHT22;61999;51.514;14.614;2023-07-20T07:05:55;14.40;59.50
15879;DHT22;61999;51.514;14.614;2023-07-20T07:08:24;14.60;58.80
15879;DHT22;61999;51.514;14.614;2023-07-20T07:10:52;14.50;58.60
15879;DHT22;61999;51.514;14.614;2023-07-20T07:13:22;14.50;58.60
15879;DHT22;61999;51.514;14.614;2023-07-20T07:15:57;14.60;58.60
15879;DHT22;61999;51.514;14.614;2023-07-20T07:18:25;14.60;58.00
15879;DHT22;61999;51.514;14.614;2023-07-20T07:20:53;14.60;58.30
15879;DHT22;61999;51.514;14.614;2023-07-20T07:23:21;14.70;57.10
15879;DHT22;61999;51.514;14.614;2023-07-20T07:25:49;14.70;58.00
15879;DHT22;61999;51.514;14.614;2023-07-20T07:28:17;14.50;58.80
15879;DHT22;61999;51.514;14.614;2023-07-20T07:30:46;14.60;58.20
15879;DHT22;61999;51.514;14.614;2023-07-20T07:33:14;14.90;57.20
15879;DHT22;61999;51.514;14.614;2023-07-20T07:35:42;14.90;57.20
15879;DHT22;61999;51.514;14.614;2023-07-20T07:38:10;14.50;58.20
15879;DHT22;61999;51.514;14.614;2023-07-20T07:40:44;14.20;59.10
15879;DHT22;61999;51.514;14.614;2023-07-20T07:43:13;14.10;59.80
15879;DHT22;61999;51.514;14.614;2023-07-20T07:45:41;14.20;59.20
15879;DHT22;61999;51.514;14.614;2023-07-20T07:48:10;14.20;60.00
15879;DHT22;61999;51.514;14.614;2023-07-20T07:50:39;14.30;59.30
15879;DHT22;61999;51.514;14.614;2023-07-20T07:53:07;14.50;58.70
15879;DHT22;61999;51.514;14.614;2023-07-20T07:55:36;14.60;58.90
15879;DHT22;61999;51.514;14.614;2023-07-20T07:58:05;14.80;57.80
15879;DHT22;61999;51.514;14.614;2023-07-20T08:00:34;15.00;56.40
15879;DHT22;61999;51.514;14.614;2023-07-20T08:03:06;14.90;57.00
15879;DHT22;61999;51.514;14.614;2023-07-20T08:05:36;15.00;56.80
15879;DHT22;61999;51.514;14.614;2023-07-20T08:08:05;15.10;56.20
15879;DHT22;61999;51.514;14.614;2023-07-20T08:10:37;15.10;56.20
15879;DHT22;61999;51.514;14.614;2023-07-20T08:13:06;15.20;55.90
15879;DHT22;61999;51.514;14.614;2023-07-20T08:15:35;15.10;57.10
15879;DHT22;61999;51.514;14.614;2023-07-20T08:18:04;15.10;57.80
15879;DHT22;61999;51.514;14.614;2023-07-20T08:20:36;15.40;56.60
15879;DHT22;61999;51.514;14.614;2023-07-20T08:23:05;15.80;53.30
15879;DHT22;61999;51.514;14.614;2023-07-20T08:25:36;15.60;54.90
15879;DHT22;61999;51.514;14.614;2023-07-20T08:28:07;15.80;54.10
15879;DHT22;61999;51.514;14.614;2023-07-20T08:30:43;15.90;51.80
15879;DHT22;61999;51.514;14.614;2023-07-20T08:33:13;15.80;53.00
15879;DHT22;61999;51.514;14.614;2023-07-20T08:35:44;15.90;52.40
15879;DHT22;61999;51.514;14.614;2023-07-20T08:38:13;16.10;51.30
15879;DHT22;61999;51.514;14.614;2023-07-20T08:40:42;16.10;50.80
15879;DHT22;61999;51.514;14.614;2023-07-20T08:43:13;16.20;51.10
15879;DHT22;61999;51.514;14.614;2023-07-20T08:48:15;16.50;49.10
15879;DHT22;61999;51.514;14.614;2023-07-20T08:50:49;16.70;48.00
15879;DHT22;61999;51.514;14.614;2023-07-20T08:53:24;16.70;50.00
15879;DHT22;61999;51.514;14.614;2023-07-20T08:55:52;16.90;47.10
15879;DHT22;61999;51.514;14.614;2023-07-20T08:58:21;17.00;47.10
15879;DHT22;61999;51.514;14.614;2023-07-20T09:00:53;16.80;48.90
15879;DHT22;61999;51.514;14.614;2023-07-20T09:03:22;17.00;47.50
15879;DHT22;61999;51.514;14.614;2023-07-20T09:05:58;17.10;47.80
15879;DHT22;61999;51.514;14.614;2023-07-20T09:08:26;17.20;48.00
15879;DHT22;61999;51.514;14.614;2023-07-20T09:10:54;17.20;48.30
15879;DHT22;61999;51.514;14.614;2023-07-20T09:13:25;17.40;47.80
15879;DHT22;61999;51.514;14.614;2023-07-20T09:15:54;17.50;48.30
15879;DHT22;61999;51.514;14.614;2023-07-20T09:18:26;17.80;46.70
15879;DHT22;61999;51.514;14.614;2023-07-20T09:21:01;17.80;46.60
15879;DHT22;61999;51.514;14.614;2023-07-20T09:23:32;17.90;45.90
15879;DHT22;61999;51.514;14.614;2023-07-20T09:26:02;18.20;44.90
15879;DHT22;61999;51.514;14.614;2023-07-20T09:28:42;17.90;46.30
15879;DHT22;61999;51.514;14.614;2023-07-20T09:31:16;18.00;44.80
15879;DHT22;61999;51.514;14.614;2023-07-20T09:33:45;17.80;46.00
15879;DHT22;61999;51.514;14.614;2023-07-20T09:36:19;17.90;45.30
15879;DHT22;61999;51.514;14.614;2023-07-20T09:38:52;17.80;44.60
15879;DHT22;61999;51.514;14.614;2023-07-20T09:41:24;17.60;45.40
15879;DHT22;61999;51.514;14.614;2023-07-20T09:43:56;17.50;46.40
15879;DHT22;61999;51.514;14.614;2023-07-20T09:46:24;17.50;45.40
15879;DHT22;61999;51.514;14.614;2023-07-20T09:48:55;17.40;46.50
15879;DHT22;61999;51.514;14.614;2023-07-20T09:51:28;17.40;46.40
15879;DHT22;61999;51.514;14.614;2023-07-20T09:53:57;17.50;46.10
15879;DHT22;61999;51.514;14.614;2023-07-20T09:56:26;17.30;46.00
15879;DHT22;61999;51.514;14.614;2023-07-20T09:58:56;17.20;46.50
15879;DHT22;61999;51.514;14.614;2023-07-20T10:01:26;17.30;46.60
15879;DHT22;61999;51.514;14.614;2023-07-20T10:03:58;17.40;47.10
15879;DHT22;61999;51.514;14.614;2023-07-20T10:06:32;17.50;46.80
15879;DHT22;61999;51.514;14.614;2023-07-20T10:09:03;17.50;46.70
15879;DHT22;61999;51.514;14.614;2023-07-20T10:11:36;17.60;47.70
15879;DHT22;61999;51.514;14.614;2023-07-20T10:14:08;17.90;47.00
15879;DHT22;61999;51.514;14.614;2023-07-20T10:16:49;18.20;46.30
15879;DHT22;61999;51.514;14.614;2023-07-20T10:19:23;18.50;45.00
15879;DHT22;61999;51.514;14.614;2023-07-20T10:21:59;18.70;44.60
15879;DHT22;61999;51.514;14.614;2023-07-20T10:24:31;18.90;44.90
15879;DHT22;61999;51.514;14.614;2023-07-20T10:27:00;19.30;43.00
15879;DHT22;61999;51.514;14.614;2023-07-20T10:29:29;19.80;40.30
15879;DHT22;61999;51.514;14.614;2023-07-20T10:31:58;20.10;41.20
15879;DHT22;61999;51.514;14.614;2023-07-20T10:34:27;20.40;40.20
15879;DHT22;61999;51.514;14.614;2023-07-20T10:37:00;20.70;38.80
15879;DHT22;61999;51.514;14.614;2023-07-20T10:39:31;20.80;38.10
15879;DHT22;61999;51.514;14.614;2023-07-20T10:42:01;20.90;37.20
15879;DHT22;61999;51.514;14.614;2023-07-20T10:44:30;20.90;38.80
15879;DHT22;61999;51.514;14.614;2023-07-20T10:46:59;21.10;37.60
15879;DHT22;61999;51.514;14.614;2023-07-20T10:49:28;21.20;39.00
15879;DHT22;61999;51.514;14.614;2023-07-20T10:51:57;21.40;38.40
15879;DHT22;61999;51.514;14.614;2023-07-20T10:54:47;21.50;37.20
15879;DHT22;61999;51.514;14.614;2023-07-20T10:57:28;21.30;37.70
15879;DHT22;61999;51.514;14.614;2023-07-20T11:00:09;21.20;37.20
15879;DHT22;61999;51.514;14.614;2023-07-20T11:02:43;20.90;38.70
15879;DHT22;61999;51.514;14.614;2023-07-20T11:05:36;21.00;38.90
15879;DHT22;61999;51.514;14.614;2023-07-20T11:08:09;21.30;38.00
15879;DHT22;61999;51.514;14.614;2023-07-20T11:10:39;21.50;37.60
15879;DHT22;61999;51.514;14.614;2023-07-20T11:13:21;21.90;35.50
15879;DHT22;61999;51.514;14.614;2023-07-20T11:16:04;21.80;36.80
15879;DHT22;61999;51.514;14.614;2023-07-20T11:18:35;22.00;36.20
15879;DHT22;61999;51.514;14.614;2023-07-20T11:21:08;22.20;36.10
15879;DHT22;61999;51.514;14.614;2023-07-20T11:23:38;22.50;36.20
15879;DHT22;61999;51.514;14.614;2023-07-20T11:26:09;22.90;35.40
15879;DHT22;61999;51.514;14.614;2023-07-20T11:28:38;23.00;34.80
15879;DHT22;61999;51.514;14.614;2023-07-20T11:31:06;23.10;34.20
15879;DHT22;61999;51.514;14.614;2023-07-20T11:33:34;23.20;34.40
15879;DHT22;61999;51.514;14.614;2023-07-20T11:36:03;23.10;34.00
15879;DHT22;61999;51.514;14.614;2023-07-20T11:38:52;23.10;35.50
15879;DHT22;61999;51.514;14.614;2023-07-20T11:41:22;23.30;33.20
15879;DHT22;61999;51.514;14.614;2023-07-20T11:43:52;23.00;34.60
15879;DHT22;61999;51.514;14.614;2023-07-20T11:46:21;23.00;34.90
15879;DHT22;61999;51.514;14.614;2023-07-20T11:48:49;23.10;35.20
15879;DHT22;61999;51.514;14.614;2023-07-20T11:51:25;23.30;34.10
15879;DHT22;61999;51.514;14.614;2023-07-20T11:53:55;23.40;33.60
15879;DHT22;61999;51.514;14.614;2023-07-20T11:56:25;23.60;33.90
15879;DHT22;61999;51.514;14.614;2023-07-20T11:58:57;23.90;32.60
15879;DHT22;61999;51.514;14.614;2023-07-20T12:01:28;24.00;32.20
15879;DHT22;61999;51.514;14.614;2023-07-20T12:03:59;24.20;34.00
15879;DHT22;61999;51.514;14.614;2023-07-20T12:06:29;24.60;32.80
15879;DHT22;61999;51.514;14.614;2023-07-20T12:08:59;24.90;33.20
15879;DHT22;61999;51.514;14.614;2023-07-20T12:11:33;25.50;32.00
15879;DHT22;61999;51.514;14.614;2023-07-20T12:14:02;25.90;32.30
15879;DHT22;61999;51.514;14.614;2023-07-20T12:16:38;26.40;31.20
15879;DHT22;61999;51.514;14.614;2023-07-20T12:19:07;27.10;29.30
15879;DHT22;61999;51.514;14.614;2023-07-20T12:21:37;27.10;28.10
15879;DHT22;61999;51.514;14.614;2023-07-20T12:24:07;26.60;28.60
15879;DHT22;61999;51.514;14.614;2023-07-20T12:26:37;26.00;29.70
15879;DHT22;61999;51.514;14.614;2023-07-20T12:29:05;25.70;30.00
15879;DHT22;61999;51.514;14.614;2023-07-20T12:31:36;25.60;30.30
15879;DHT22;61999;51.514;14.614;2023-07-20T12:34:04;25.50;30.80
15879;DHT22;61999;51.514;14.614;2023-07-20T12:36:34;25.50;30.20
15879;DHT22;61999;51.514;14.614;2023-07-20T12:39:02;25.30;30.20
15879;DHT22;61999;51.514;14.614;2023-07-20T12:41:30;25.20;30.00
15879;DHT22;61999;51.514;14.614;2023-07-20T12:43:59;25.00;29.90
15879;DHT22;61999;51.514;14.614;2023-07-20T12:46:27;24.70;29.90
15879;DHT22;61999;51.514;14.614;2023-07-20T12:48:56;24.40;30.20
15879;DHT22;61999;51.514;14.614;2023-07-20T12:51:23;24.10;30.00
15879;DHT22;61999;51.514;14.614;2023-07-20T12:53:52;23.90;31.00
15879;DHT22;61999;51.514;14.614;2023-07-20T12:56:20;23.90;31.10
15879;DHT22;61999;51.514;14.614;2023-07-20T12:58:51;23.70;31.40
15879;DHT22;61999;51.514;14.614;2023-07-20T13:01:20;23.50;31.40
15879;DHT22;61999;51.514;14.614;2023-07-20T13:03:48;23.50;31.40
15879;DHT22;61999;51.514;14.614;2023-07-20T13:06:19;23.50;31.30
15879;DHT22;61999;51.514;14.614;2023-07-20T13:08:50;23.20;32.60
15879;DHT22;61999;51.514;14.614;2023-07-20T13:11:22;23.20;32.80
15879;DHT22;61999;51.514;14.614;2023-07-20T13:13:50;23.10;33.60
15879;DHT22;61999;51.514;14.614;2023-07-20T13:16:19;23.10;34.20
15879;DHT22;61999;51.514;14.614;2023-07-20T13:18:47;23.40;33.30
15879;DHT22;61999;51.514;14.614;2023-07-20T13:21:16;23.90;30.40
15879;DHT22;61999;51.514;14.614;2023-07-20T13:23:46;23.90;30.60
15879;DHT22;61999;51.514;14.614;2023-07-20T13:26:15;23.80;30.40
15879;DHT22;61999;51.514;14.614;2023-07-20T13:28:43;23.60;30.70
15879;DHT22;61999;51.514;14.614;2023-07-20T13:31:11;23.40;31.00
15879;DHT22;61999;51.514;14.614;2023-07-20T13:33:40;23.10;31.60
15879;DHT22;61999;51.514;14.614;2023-07-20T13:36:08;22.80;31.70
15879;DHT22;61999;51.514;14.614;2023-07-20T13:38:36;22.40;32.10
15879;DHT22;61999;51.514;14.614;2023-07-20T13:41:04;22.00;33.90
15879;DHT22;61999;51.514;14.614;2023-07-20T13:43:32;21.60;35.40
15879;DHT22;61999;51.514;14.614;2023-07-20T13:46:00;20.70;37.00
15879;DHT22;61999;51.514;14.614;2023-07-20T13:48:28;19.80;39.00
15879;DHT22;61999;51.514;14.614;2023-07-20T13:50:57;19.20;40.50
15879;DHT22;61999;51.514;14.614;2023-07-20T13:53:25;18.80;41.20
15879;DHT22;61999;51.514;14.614;2023-07-20T13:55:57;18.60;42.30
15879;DHT22;61999;51.514;14.614;2023-07-20T13:58:28;18.30;42.90
15879;DHT22;61999;51.514;14.614;2023-07-20T14:00:57;18.10;43.50
15879;DHT22;61999;51.514;14.614;2023-07-20T14:03:25;18.00;43.90
15879;DHT22;61999;51.514;14.614;2023-07-20T14:05:53;18.00;44.30
15879;DHT22;61999;51.514;14.614;2023-07-20T14:08:25;17.80;44.80
15879;DHT22;61999;51.514;14.614;2023-07-20T14:10:53;17.60;45.40
15879;DHT22;61999;51.514;14.614;2023-07-20T14:13:23;17.50;45.50
15879;DHT22;61999;51.514;14.614;2023-07-20T14:15:56;17.50;45.80
15879;DHT22;61999;51.514;14.614;2023-07-20T14:18:24;17.70;46.10
15879;DHT22;61999;51.514;14.614;2023-07-20T14:20:52;17.80;45.50
15879;DHT22;61999;51.514;14.614;2023-07-20T14:23:20;17.80;45.70
15879;DHT22;61999;51.514;14.614;2023-07-20T14:25:50;17.90;45.50
15879;DHT22;61999;51.514;14.614;2023-07-20T14:28:18;17.60;45.70
15879;DHT22;61999;51.514;14.614;2023-07-20T14:30:46;17.60;44.50
15879;DHT22;61999;51.514;14.614;2023-07-20T14:33:14;17.50;43.40
15879;DHT22;61999;51.514;14.614;2023-07-20T14:35:42;17.20;43.30
15879;DHT22;61999;51.514;14.614;2023-07-20T14:38:10;17.00;43.30
15879;DHT22;61999;51.514;14.614;2023-07-20T14:40:38;16.80;44.00
15879;DHT22;61999;51.514;14.614;2023-07-20T14:43:07;16.90;43.70
15879;DHT22;61999;51.514;14.614;2023-07-20T14:45:35;17.10;43.50
15879;DHT22;61999;51.514;14.614;2023-07-20T14:48:04;17.20;43.10
15879;DHT22;61999;51.514;14.614;2023-07-20T14:50:33;17.30;43.50
15879;DHT22;61999;51.514;14.614;2023-07-20T14:53:01;17.80;41.20
15879;DHT22;61999;51.514;14.614;2023-07-20T14:55:32;17.80;41.70
15879;DHT22;61999;51.514;14.614;2023-07-20T14:58:00;17.90;41.60
15879;DHT22;61999;51.514;14.614;2023-07-20T15:00:29;18.10;40.80
15879;DHT22;61999;51.514;14.614;2023-07-20T15:02:57;18.10;41.00
15879;DHT22;61999;51.514;14.614;2023-07-20T15:05:25;18.50;40.00
15879;DHT22;61999;51.514;14.614;2023-07-20T15:07:54;18.40;40.00
15879;DHT22;61999;51.514;14.614;2023-07-20T15:10:22;18.50;40.20
15879;DHT22;61999;51.514;14.614;2023-07-20T15:12:50;18.60;39.90
15879;DHT22;61999;51.514;14.614;2023-07-20T15:15:17;18.50;40.30
15879;DHT22;61999;51.514;14.614;2023-07-20T15:17:47;18.20;41.00
15879;DHT22;61999;51.514;14.614;2023-07-20T15:20:16;18.10;41.60
15879;DHT22;61999;51.514;14.614;2023-07-20T15:22:44;18.30;42.00
15879;DHT22;61999;51.514;14.614;2023-07-20T15:25:13;18.40;42.40
15879;DHT22;61999;51.514;14.614;2023-07-20T15:27:41;18.60;42.60
15879;DHT22;61999;51.514;14.614;2023-07-20T15:30:11;18.80;42.00
15879;DHT22;61999;51.514;14.614;2023-07-20T15:33:02;19.10;41.50